createdAt,value
2022-08-03T00:00:55.012Z,100641.18
2022-08-03T00:06:04.772Z,100643.97
2022-08-03T00:11:08.031Z,100637.15
2022-08-03T00:16:10.958Z,100636.45
2022-08-03T00:21:13.666Z,100642.05
2022-08-03T00:26:18.718Z,100643.86
2022-08-03T00:31:23.098Z,100642.77
2022-08-03T00:36:42.797Z,100645.09
2022-08-03T00:41:45.465Z,100641.88
2022-08-03T00:46:48.209Z,100639.89
2022-08-03T00:51:51.311Z,100643.67
2022-08-03T00:57:00.034Z,100641.86
2022-08-03T01:02:03.259Z,100643.25
2022-08-03T01:07:25.917Z,100640.65
2022-08-03T01:12:31.713Z,100639.80
2022-08-03T01:17:44.587Z,100637.48
2022-08-03T01:23:28.985Z,100632.86
2022-08-03T01:29:02.435Z,100626.67
2022-08-03T01:34:09.309Z,100626.71
2022-08-03T01:39:19.339Z,100624.53
2022-08-03T01:44:29.786Z,100623.00
2022-08-03T01:49:39.655Z,100621.50
2022-08-03T01:54:45.664Z,100619.29
2022-08-03T01:59:50.998Z,100621.28
2022-08-03T02:04:56.999Z,100619.48
2022-08-03T02:10:02.927Z,100616.16
2022-08-03T02:15:07.288Z,100612.73
2022-08-03T02:20:13.606Z,100607.61
2022-08-03T02:25:16.557Z,100602.10
2022-08-03T02:30:20.771Z,100602.97
2022-08-03T02:35:26.517Z,100600.25
2022-08-03T02:40:31.555Z,100600.84
2022-08-03T02:45:36.825Z,100600.16
2022-08-03T02:50:40.554Z,100595.55
2022-08-03T02:55:45.989Z,100601.59
2022-08-03T03:00:51.968Z,100602.03
2022-08-03T03:05:57.659Z,100602.06
2022-08-03T03:11:02.032Z,100602.31
2022-08-03T03:16:06.467Z,100602.63
2022-08-03T03:21:10.390Z,100602.46
2022-08-03T03:26:15.466Z,100601.17
2022-08-03T03:31:18.223Z,100599.88
2022-08-03T03:36:20.955Z,100596.19
2022-08-03T03:41:23.820Z,100600.64
2022-08-03T03:46:26.803Z,100604.50
2022-08-03T03:51:29.599Z,100604.64
2022-08-03T03:56:32.999Z,100611.83
2022-08-03T04:01:35.771Z,100615.06
2022-08-03T04:06:56.992Z,100620.38
2022-08-03T04:12:01.875Z,100622.13
2022-08-03T04:17:09.418Z,100623.95
2022-08-03T04:22:15.130Z,100633.94
2022-08-03T04:27:22.510Z,100635.73
2022-08-03T04:32:28.831Z,100643.06
2022-08-03T04:37:48.179Z,100645.41
2022-08-03T04:42:53.741Z,100648.30
2022-08-03T04:47:57.770Z,100652.09
2022-08-03T04:53:00.677Z,100648.73
2022-08-03T04:58:05.127Z,100653.38
2022-08-03T05:03:23.720Z,100657.59
2022-08-03T05:08:27.826Z,100663.23
2022-08-03T05:13:31.334Z,100665.73
2022-08-03T05:18:34.186Z,100668.44
2022-08-03T05:23:38.016Z,100668.34
2022-08-03T05:28:51.373Z,100671.46
2022-08-03T05:33:54.892Z,100678.08
2022-08-03T05:39:02.452Z,100674.96
2022-08-03T05:44:06.073Z,100674.44
2022-08-03T05:49:08.845Z,100673.86
2022-08-03T05:54:11.941Z,100685.45
2022-08-03T05:59:36.962Z,100681.60
2022-08-03T06:04:38.166Z,100675.52
2022-08-03T06:10:33.627Z,100675.55
2022-08-03T06:15:05.433Z,100676.66
2022-08-03T06:20:11.042Z,100685.02
2022-08-03T06:25:14.255Z,100684.05
2022-08-03T06:30:21.059Z,100686.83
2022-08-03T06:35:24.592Z,100687.64
2022-08-03T06:40:31.381Z,100693.17
2022-08-03T06:45:35.487Z,100688.91
2022-08-03T06:50:41.577Z,100687.55
2022-08-03T06:55:45.341Z,100686.69
2022-08-03T07:00:48.180Z,100681.29
2022-08-03T07:05:51.397Z,100687.00
2022-08-03T07:10:54.612Z,100691.11
2022-08-03T07:15:57.461Z,100689.56
2022-08-03T07:21:00.150Z,100695.78
2022-08-03T07:26:03.065Z,100696.42
2022-08-03T07:31:05.772Z,100699.58
2022-08-03T07:36:08.481Z,100698.38
2022-08-03T07:41:11.672Z,100690.33
2022-08-03T07:46:15.162Z,100692.84
2022-08-03T07:51:17.884Z,100693.11
2022-08-03T07:56:21.447Z,100687.61
2022-08-03T08:01:24.316Z,100691.40
2022-08-03T08:06:27.173Z,100688.41
2022-08-03T08:11:29.929Z,100686.14
2022-08-03T08:16:34.313Z,100692.39
2022-08-03T08:21:53.982Z,100696.84
2022-08-03T08:27:01.507Z,100695.26
2022-08-03T08:32:04.937Z,100699.02
2022-08-03T08:37:08.011Z,100697.80
2022-08-03T08:42:10.718Z,100700.50
2022-08-03T08:47:14.871Z,100701.48
2022-08-03T08:52:29.478Z,100698.70
2022-08-03T08:57:43.102Z,100702.95
2022-08-03T09:02:47.092Z,100704.38
2022-08-03T09:07:50.283Z,100702.40
2022-08-03T09:12:53.311Z,100699.80
2022-08-03T09:17:58.106Z,100700.59
2022-08-03T09:23:24.691Z,100701.98
2022-08-03T09:28:59.916Z,100700.94
2022-08-03T09:34:01.240Z,100702.73
2022-08-03T09:39:06.570Z,100701.14
2022-08-03T09:44:24.472Z,100698.97
2022-08-03T09:49:28.650Z,100692.95
2022-08-03T09:54:32.527Z,100690.35
2022-08-03T09:59:35.436Z,100687.54
2022-08-03T10:04:48.732Z,100687.99
2022-08-03T10:10:31.302Z,100683.64
2022-08-03T10:16:23.840Z,100682.67
2022-08-03T10:20:54.658Z,100682.48
2022-08-03T10:26:01.975Z,100680.27
2022-08-03T10:31:07.940Z,100680.17
2022-08-03T10:36:13.577Z,100679.98
2022-08-03T10:41:20.027Z,100674.10
2022-08-03T10:46:23.001Z,100673.44
2022-08-03T10:51:30.617Z,100678.88
2022-08-03T10:56:51.783Z,100677.39
2022-08-03T11:02:00.121Z,100669.13
2022-08-03T11:07:15.932Z,100667.31
2022-08-03T11:12:30.608Z,100665.08
2022-08-03T11:17:46.117Z,100661.31
2022-08-03T11:23:01.156Z,100666.38
2022-08-03T11:28:22.842Z,100662.45
2022-08-03T11:33:31.939Z,100661.63
2022-08-03T11:38:34.673Z,100661.27
2022-08-03T11:43:37.737Z,100668.08
2022-08-03T11:48:45.513Z,100664.40
2022-08-03T11:53:53.077Z,100662.31
2022-08-03T11:59:18.194Z,100660.98
2022-08-03T12:04:21.065Z,100658.74
2022-08-03T12:09:23.839Z,100653.51
2022-08-03T12:14:49.019Z,100647.00
2022-08-03T12:19:51.274Z,100639.36
2022-08-03T12:24:54.302Z,100635.96
2022-08-03T12:29:59.378Z,100636.95
2022-08-03T12:35:04.628Z,100635.46
2022-08-03T12:40:13.219Z,100632.60
2022-08-03T12:45:20.295Z,100630.52
2022-08-03T12:50:35.851Z,100632.30
2022-08-03T12:55:56.994Z,100624.21
2022-08-03T13:01:09.152Z,100625.34
2022-08-03T13:06:17.678Z,100620.59
2022-08-03T13:11:22.819Z,100618.79
2022-08-03T13:16:45.501Z,100620.91
2022-08-03T13:22:03.228Z,100617.23
2022-08-03T13:28:01.661Z,100615.98
2022-08-03T13:32:31.445Z,100614.51
2022-08-03T13:37:34.335Z,100613.15
2022-08-03T13:42:38.994Z,100613.70
2022-08-03T13:47:42.081Z,100611.38
2022-08-03T13:52:46.483Z,100603.41
2022-08-03T13:58:11.466Z,100599.40
2022-08-03T14:03:14.516Z,100597.13
2022-08-03T14:08:18.578Z,100594.05
2022-08-03T14:13:21.543Z,100586.66
2022-08-03T14:18:28.872Z,100585.77
2022-08-03T14:23:40.028Z,100578.85
2022-08-03T14:28:42.721Z,100571.88
2022-08-03T14:33:45.485Z,100566.06
2022-08-03T14:38:48.335Z,100562.95
2022-08-03T14:44:00.519Z,100551.88
2022-08-03T14:50:38.377Z,100555.98
2022-08-03T14:54:31.145Z,100557.38
2022-08-03T14:59:55.666Z,100559.48
2022-08-03T15:04:56.990Z,100553.89
2022-08-03T15:09:59.716Z,100553.14
2022-08-03T15:15:06.132Z,100553.65
2022-08-03T15:20:25.505Z,100552.79
2022-08-03T15:26:04.113Z,100546.01
2022-08-03T15:30:56.319Z,100540.56
2022-08-03T15:36:00.397Z,100543.22
2022-08-03T15:41:03.203Z,100536.94
2022-08-03T15:46:28.822Z,100536.00
2022-08-03T15:51:28.946Z,100533.49
2022-08-03T15:56:31.663Z,100531.45
2022-08-03T16:01:34.877Z,100526.27
2022-08-03T16:06:37.941Z,100528.40
2022-08-03T16:11:40.646Z,100524.57
2022-08-03T16:16:43.590Z,100524.04
2022-08-03T16:21:48.250Z,100528.37
2022-08-03T16:26:51.760Z,100525.03
2022-08-03T16:31:54.459Z,100523.77
2022-08-03T16:36:57.231Z,100527.08
2022-08-03T16:42:01.717Z,100525.39
2022-08-03T16:47:04.838Z,100527.05
2022-08-03T16:52:07.700Z,100522.61
2022-08-03T16:57:10.412Z,100525.80
2022-08-03T17:02:27.268Z,100527.02
2022-08-03T17:07:30.369Z,100526.75
2022-08-03T17:12:33.347Z,100527.59
2022-08-03T17:17:53.783Z,100532.44
2022-08-03T17:23:34.694Z,100529.45
2022-08-03T17:28:50.115Z,100537.77
2022-08-03T17:34:01.352Z,100543.95
2022-08-03T17:39:06.476Z,100544.41
2022-08-03T17:44:15.687Z,100543.84
2022-08-03T17:49:24.678Z,100548.84
2022-08-03T17:55:51.521Z,100552.27
2022-08-03T18:00:29.806Z,100551.34
2022-08-03T18:06:11.466Z,100558.90
2022-08-03T18:11:14.282Z,100560.61
2022-08-03T18:16:24.804Z,100564.85
2022-08-03T18:22:02.733Z,100564.15
2022-08-03T18:26:53.576Z,100574.96
2022-08-03T18:32:04.265Z,100579.25
2022-08-03T18:37:12.242Z,100583.86
2022-08-03T18:42:25.761Z,100584.89
2022-08-03T18:47:50.969Z,100594.42
2022-08-03T18:52:55.431Z,100598.39
2022-08-03T18:58:19.824Z,100594.58
2022-08-03T19:03:24.819Z,100598.88
2022-08-03T19:08:33.401Z,100596.42
2022-08-03T19:19:14.372Z,100595.84
2022-08-03T19:24:23.322Z,100591.95
2022-08-03T19:29:33.338Z,100594.89
2022-08-03T19:34:54.161Z,100597.18
2022-08-03T19:40:00.653Z,100594.88
2022-08-03T19:45:11.303Z,100596.00
2022-08-03T19:50:20.035Z,100594.46
2022-08-03T19:55:23.808Z,100602.89
2022-08-03T20:00:36.769Z,100603.08
2022-08-03T20:05:51.901Z,100608.02
2022-08-03T20:10:55.550Z,100611.35
2022-08-03T20:15:58.388Z,100612.91
2022-08-03T20:21:14.800Z,100611.34
2022-08-03T20:26:20.357Z,100614.52
2022-08-03T20:31:32.216Z,100619.80
2022-08-03T20:36:39.108Z,100617.77
2022-08-03T20:41:42.017Z,100618.44
2022-08-03T20:46:53.169Z,100622.23
2022-08-03T20:52:03.540Z,100619.40
2022-08-03T20:57:09.577Z,100628.98
2022-08-03T21:02:13.341Z,100632.70
2022-08-03T21:07:24.434Z,100625.70
2022-08-03T21:13:08.943Z,100594.20
2022-08-03T21:13:19.059Z,100631.21
2022-08-03T21:18:23.486Z,100637.42
2022-08-03T21:23:39.981Z,100637.41
2022-08-03T21:28:52.857Z,100638.60
2022-08-03T21:34:04.147Z,100635.55
2022-08-03T21:39:09.023Z,100640.84
2022-08-03T21:44:11.961Z,100642.59
2022-08-03T21:50:05.555Z,100641.52
2022-08-03T21:54:42.174Z,100639.75
2022-08-03T21:59:52.977Z,100634.06
2022-08-03T22:04:57.297Z,100631.20
2022-08-03T22:10:02.894Z,100632.60
2022-08-03T22:15:08.849Z,100635.41
2022-08-03T22:20:14.489Z,100637.90
2022-08-03T22:25:17.557Z,100641.73
2022-08-03T22:30:20.585Z,100636.54
2022-08-03T22:35:26.054Z,100640.31
2022-08-03T22:40:29.079Z,100645.48
2022-08-03T22:46:06.014Z,100653.31
2022-08-03T22:50:56.679Z,100649.44
2022-08-03T22:55:59.683Z,100648.17
2022-08-03T23:01:06.016Z,100652.94
2022-08-03T23:06:09.332Z,100643.24
2022-08-03T23:11:12.960Z,100644.36
2022-08-03T23:16:29.299Z,100640.66
2022-08-03T23:21:53.551Z,100646.39
2022-08-03T23:26:56.686Z,100644.20
2022-08-03T23:32:02.295Z,100643.23
2022-08-03T23:37:05.833Z,100647.20
2022-08-03T23:42:10.002Z,100643.52
2022-08-03T23:47:14.036Z,100649.25
2022-08-03T23:52:29.321Z,100651.20
2022-08-03T23:57:52.401Z,100649.83
